sensor_id;sensor_type;location;lat;lon;timestamp;P1;durP1;ratioP1;P2;durP2;ratioP2
45620;SDS011;31345;51.522;10.702;2023-09-18T00:02:05;8.07;;;5.18;;
45620;SDS011;31345;51.522;10.702;2023-09-18T00:04:37;6.95;;;4.75;;
45620;SDS011;31345;51.522;10.702;2023-09-18T00:07:10;7.15;;;5.13;;
45620;SDS011;31345;51.522;10.702;2023-09-18T00:09:43;8.65;;;5.80;;
45620;SDS011;31345;51.522;10.702;2023-09-18T00:12:12;7.95;;;5.63;;
45620;SDS011;31345;51.522;10.702;2023-09-18T00:14:47;6.72;;;5.40;;
45620;SDS011;31345;51.522;10.702;2023-09-18T00:17:20;6.63;;;4.97;;
45620;SDS011;31345;51.522;10.702;2023-09-18T00:19:54;7.68;;;5.70;;
45620;SDS011;31345;51.522;10.702;2023-09-18T00:22:27;8.85;;;6.03;;
45620;SDS011;31345;51.522;10.702;2023-09-18T00:24:59;6.97;;;5.43;;
45620;SDS011;31345;51.522;10.702;2023-09-18T00:27:35;8.35;;;6.00;;
45620;SDS011;31345;51.522;10.702;2023-09-18T00:30:08;8.25;;;5.68;;
45620;SDS011;31345;51.522;10.702;2023-09-18T00:32:40;7.88;;;5.45;;
45620;SDS011;31345;51.522;10.702;2023-09-18T00:35:13;7.75;;;5.72;;
45620;SDS011;31345;51.522;10.702;2023-09-18T00:37:46;7.75;;;5.70;;
45620;SDS011;31345;51.522;10.702;2023-09-18T00:40:19;9.00;;;5.93;;
45620;SDS011;31345;51.522;10.702;2023-09-18T00:42:53;8.45;;;5.70;;
45620;SDS011;31345;51.522;10.702;2023-09-18T00:45:35;7.32;;;5.63;;
45620;SDS011;31345;51.522;10.702;2023-09-18T00:48:13;7.90;;;5.97;;
45620;SDS011;31345;51.522;10.702;2023-09-18T00:50:47;8.25;;;5.90;;
45620;SDS011;31345;51.522;10.702;2023-09-18T00:53:21;7.13;;;4.78;;
45620;SDS011;31345;51.522;10.702;2023-09-18T00:55:57;8.23;;;4.95;;
45620;SDS011;31345;51.522;10.702;2023-09-18T00:58:33;9.40;;;6.45;;
45620;SDS011;31345;51.522;10.702;2023-09-18T01:01:06;8.30;;;5.70;;
45620;SDS011;31345;51.522;10.702;2023-09-18T01:03:41;8.25;;;5.50;;
45620;SDS011;31345;51.522;10.702;2023-09-18T01:06:14;7.88;;;5.63;;
45620;SDS011;31345;51.522;10.702;2023-09-18T01:08:47;7.13;;;5.53;;
45620;SDS011;31345;51.522;10.702;2023-09-18T01:11:26;7.88;;;5.53;;
45620;SDS011;31345;51.522;10.702;2023-09-18T01:14:07;6.47;;;5.72;;
45620;SDS011;31345;51.522;10.702;2023-09-18T01:16:48;7.00;;;5.43;;
45620;SDS011;31345;51.522;10.702;2023-09-18T01:19:34;8.48;;;5.57;;
45620;SDS011;31345;51.522;10.702;2023-09-18T01:22:09;11.90;;;5.75;;
45620;SDS011;31345;51.522;10.702;2023-09-18T01:24:39;7.78;;;5.80;;
45620;SDS011;31345;51.522;10.702;2023-09-18T01:27:13;7.63;;;5.65;;
45620;SDS011;31345;51.522;10.702;2023-09-18T01:29:47;7.72;;;5.10;;
45620;SDS011;31345;51.522;10.702;2023-09-18T01:32:21;8.38;;;5.32;;
45620;SDS011;31345;51.522;10.702;2023-09-18T01:34:57;8.45;;;5.60;;
45620;SDS011;31345;51.522;10.702;2023-09-18T01:37:33;8.02;;;5.45;;
45620;SDS011;31345;51.522;10.702;2023-09-18T01:40:08;9.30;;;5.35;;
45620;SDS011;31345;51.522;10.702;2023-09-18T01:42:42;7.88;;;5.80;;
45620;SDS011;31345;51.522;10.702;2023-09-18T01:45:15;7.50;;;5.95;;
45620;SDS011;31345;51.522;10.702;2023-09-18T01:47:48;8.68;;;5.30;;
45620;SDS011;31345;51.522;10.702;2023-09-18T01:50:20;8.98;;;6.00;;
45620;SDS011;31345;51.522;10.702;2023-09-18T01:52:53;5.82;;;5.10;;
45620;SDS011;31345;51.522;10.702;2023-09-18T01:55:27;6.80;;;4.88;;
45620;SDS011;31345;51.522;10.702;2023-09-18T01:58:01;9.15;;;5.22;;
45620;SDS011;31345;51.522;10.702;2023-09-18T02:00:34;5.43;;;4.68;;
45620;SDS011;31345;51.522;10.702;2023-09-18T02:03:07;6.03;;;5.43;;
45620;SDS011;31345;51.522;10.702;2023-09-18T02:05:39;5.75;;;4.57;;
45620;SDS011;31345;51.522;10.702;2023-09-18T02:08:12;6.30;;;4.57;;
45620;SDS011;31345;51.522;10.702;2023-09-18T02:10:46;7.60;;;5.18;;
45620;SDS011;31345;51.522;10.702;2023-09-18T02:13:19;7.85;;;5.70;;
45620;SDS011;31345;51.522;10.702;2023-09-18T02:15:52;8.40;;;6.30;;
45620;SDS011;31345;51.522;10.702;2023-09-18T02:18:25;7.32;;;5.82;;
45620;SDS011;31345;51.522;10.702;2023-09-18T02:20:58;7.13;;;5.30;;
45620;SDS011;31345;51.522;10.702;2023-09-18T02:23:30;7.35;;;5.05;;
45620;SDS011;31345;51.522;10.702;2023-09-18T02:26:04;8.35;;;6.13;;
45620;SDS011;31345;51.522;10.702;2023-09-18T02:28:37;10.23;;;5.65;;
45620;SDS011;31345;51.522;10.702;2023-09-18T02:31:09;8.32;;;5.70;;
45620;SDS011;31345;51.522;10.702;2023-09-18T02:33:37;6.50;;;5.32;;
45620;SDS011;31345;51.522;10.702;2023-09-18T02:36:10;6.88;;;5.88;;
45620;SDS011;31345;51.522;10.702;2023-09-18T02:38:43;8.13;;;6.30;;
45620;SDS011;31345;51.522;10.702;2023-09-18T02:41:17;6.75;;;5.85;;
45620;SDS011;31345;51.522;10.702;2023-09-18T02:43:51;6.55;;;5.15;;
45620;SDS011;31345;51.522;10.702;2023-09-18T02:46:24;8.27;;;5.50;;
45620;SDS011;31345;51.522;10.702;2023-09-18T02:48:56;7.15;;;6.22;;
45620;SDS011;31345;51.522;10.702;2023-09-18T02:51:29;10.30;;;6.68;;
45620;SDS011;31345;51.522;10.702;2023-09-18T02:54:03;6.20;;;5.32;;
45620;SDS011;31345;51.522;10.702;2023-09-18T02:56:38;10.13;;;6.07;;
45620;SDS011;31345;51.522;10.702;2023-09-18T02:59:12;12.38;;;7.10;;
45620;SDS011;31345;51.522;10.702;2023-09-18T03:01:40;6.68;;;5.97;;
45620;SDS011;31345;51.522;10.702;2023-09-18T03:04:12;7.25;;;5.82;;
45620;SDS011;31345;51.522;10.702;2023-09-18T03:06:45;8.18;;;6.13;;
45620;SDS011;31345;51.522;10.702;2023-09-18T03:09:18;9.50;;;5.80;;
45620;SDS011;31345;51.522;10.702;2023-09-18T03:11:52;11.32;;;6.65;;
45620;SDS011;31345;51.522;10.702;2023-09-18T03:14:25;10.93;;;7.72;;
45620;SDS011;31345;51.522;10.702;2023-09-18T03:16:58;9.98;;;6.60;;
45620;SDS011;31345;51.522;10.702;2023-09-18T03:19:30;9.57;;;7.05;;
45620;SDS011;31345;51.522;10.702;2023-09-18T03:22:03;8.57;;;6.57;;
45620;SDS011;31345;51.522;10.702;2023-09-18T03:24:31;11.80;;;6.85;;
45620;SDS011;31345;51.522;10.702;2023-09-18T03:27:05;8.95;;;6.28;;
45620;SDS011;31345;51.522;10.702;2023-09-18T03:29:38;10.80;;;6.85;;
45620;SDS011;31345;51.522;10.702;2023-09-18T03:32:12;7.50;;;6.30;;
45620;SDS011;31345;51.522;10.702;2023-09-18T03:34:45;7.30;;;5.93;;
45620;SDS011;31345;51.522;10.702;2023-09-18T03:37:18;8.70;;;6.10;;
45620;SDS011;31345;51.522;10.702;2023-09-18T03:39:50;7.82;;;6.05;;
45620;SDS011;31345;51.522;10.702;2023-09-18T03:42:24;7.82;;;6.30;;
45620;SDS011;31345;51.522;10.702;2023-09-18T03:44:58;10.30;;;6.28;;
45620;SDS011;31345;51.522;10.702;2023-09-18T03:47:31;8.48;;;6.45;;
45620;SDS011;31345;51.522;10.702;2023-09-18T03:49:59;10.77;;;7.75;;
45620;SDS011;31345;51.522;10.702;2023-09-18T03:52:32;9.55;;;7.28;;
45620;SDS011;31345;51.522;10.702;2023-09-18T03:55:05;9.63;;;7.45;;
45620;SDS011;31345;51.522;10.702;2023-09-18T03:57:41;9.18;;;7.43;;
45620;SDS011;31345;51.522;10.702;2023-09-18T04:00:16;11.18;;;8.25;;
45620;SDS011;31345;51.522;10.702;2023-09-18T04:02:48;9.45;;;6.97;;
45620;SDS011;31345;51.522;10.702;2023-09-18T04:05:21;10.50;;;7.75;;
45620;SDS011;31345;51.522;10.702;2023-09-18T04:07:54;8.35;;;7.05;;
45620;SDS011;31345;51.522;10.702;2023-09-18T04:10:26;9.02;;;7.47;;
45620;SDS011;31345;51.522;10.702;2023-09-18T04:13:00;9.68;;;7.97;;
45620;SDS011;31345;51.522;10.702;2023-09-18T04:15:33;8.98;;;7.50;;
45620;SDS011;31345;51.522;10.702;2023-09-18T04:18:08;10.82;;;8.02;;
45620;SDS011;31345;51.522;10.702;2023-09-18T04:20:41;9.50;;;7.28;;
45620;SDS011;31345;51.522;10.702;2023-09-18T04:23:17;8.90;;;7.72;;
45620;SDS011;31345;51.522;10.702;2023-09-18T04:25:52;11.50;;;7.57;;
45620;SDS011;31345;51.522;10.702;2023-09-18T04:28:27;10.25;;;7.93;;
45620;SDS011;31345;51.522;10.702;2023-09-18T04:31:00;13.25;;;7.57;;
45620;SDS011;31345;51.522;10.702;2023-09-18T04:33:33;10.50;;;7.43;;
45620;SDS011;31345;51.522;10.702;2023-09-18T04:36:06;9.95;;;7.47;;
45620;SDS011;31345;51.522;10.702;2023-09-18T04:38:39;10.20;;;7.70;;
45620;SDS011;31345;51.522;10.702;2023-09-18T04:41:11;10.68;;;7.68;;
45620;SDS011;31345;51.522;10.702;2023-09-18T04:43:47;8.50;;;7.13;;
45620;SDS011;31345;51.522;10.702;2023-09-18T04:46:20;8.82;;;7.40;;
45620;SDS011;31345;51.522;10.702;2023-09-18T04:48:52;9.15;;;7.32;;
45620;SDS011;31345;51.522;10.702;2023-09-18T04:51:25;8.02;;;6.32;;
45620;SDS011;31345;51.522;10.702;2023-09-18T04:53:58;7.07;;;5.97;;
45620;SDS011;31345;51.522;10.702;2023-09-18T04:56:30;11.00;;;7.55;;
45620;SDS011;31345;51.522;10.702;2023-09-18T04:58:59;10.35;;;6.57;;
45620;SDS011;31345;51.522;10.702;2023-09-18T05:01:33;9.93;;;6.80;;
45620;SDS011;31345;51.522;10.702;2023-09-18T05:04:05;8.82;;;6.10;;
45620;SDS011;31345;51.522;10.702;2023-09-18T05:06:38;9.32;;;6.28;;
45620;SDS011;31345;51.522;10.702;2023-09-18T05:09:13;11.95;;;7.07;;
45620;SDS011;31345;51.522;10.702;2023-09-18T05:11:45;11.57;;;7.68;;
45620;SDS011;31345;51.522;10.702;2023-09-18T05:14:21;10.77;;;7.68;;
45620;SDS011;31345;51.522;10.702;2023-09-18T05:16:53;9.10;;;6.93;;
45620;SDS011;31345;51.522;10.702;2023-09-18T05:19:26;9.68;;;7.60;;
45620;SDS011;31345;51.522;10.702;2023-09-18T05:21:59;11.85;;;8.45;;
45620;SDS011;31345;51.522;10.702;2023-09-18T05:24:32;9.35;;;8.35;;
45620;SDS011;31345;51.522;10.702;2023-09-18T05:27:04;11.95;;;8.48;;
45620;SDS011;31345;51.522;10.702;2023-09-18T05:29:39;12.00;;;7.75;;
45620;SDS011;31345;51.522;10.702;2023-09-18T05:32:12;11.63;;;8.00;;
45620;SDS011;31345;51.522;10.702;2023-09-18T05:34:45;10.52;;;7.93;;
45620;SDS011;31345;51.522;10.702;2023-09-18T05:37:17;13.50;;;8.68;;
45620;SDS011;31345;51.522;10.702;2023-09-18T05:39:50;10.98;;;8.25;;
45620;SDS011;31345;51.522;10.702;2023-09-18T05:42:22;10.27;;;8.20;;
45620;SDS011;31345;51.522;10.702;2023-09-18T05:44:56;8.25;;;7.40;;
45620;SDS011;31345;51.522;10.702;2023-09-18T05:47:29;13.00;;;7.60;;
45620;SDS011;31345;51.522;10.702;2023-09-18T05:50:02;12.75;;;7.90;;
45620;SDS011;31345;51.522;10.702;2023-09-18T05:52:37;11.30;;;8.68;;
45620;SDS011;31345;51.522;10.702;2023-09-18T05:55:11;13.27;;;9.18;;
45620;SDS011;31345;51.522;10.702;2023-09-18T05:57:44;13.85;;;10.30;;
45620;SDS011;31345;51.522;10.702;2023-09-18T06:00:18;11.25;;;8.75;;
45620;SDS011;31345;51.522;10.702;2023-09-18T06:02:50;15.73;;;9.95;;
45620;SDS011;31345;51.522;10.702;2023-09-18T06:05:23;12.00;;;8.45;;
45620;SDS011;31345;51.522;10.702;2023-09-18T06:07:55;13.18;;;9.48;;
45620;SDS011;31345;51.522;10.702;2023-09-18T06:10:28;12.73;;;7.70;;
45620;SDS011;31345;51.522;10.702;2023-09-18T06:13:00;10.45;;;7.97;;
45620;SDS011;31345;51.522;10.702;2023-09-18T06:15:36;10.98;;;7.82;;
45620;SDS011;31345;51.522;10.702;2023-09-18T06:18:09;13.43;;;8.15;;
45620;SDS011;31345;51.522;10.702;2023-09-18T06:20:41;11.32;;;7.55;;
45620;SDS011;31345;51.522;10.702;2023-09-18T06:23:18;9.50;;;7.90;;
45620;SDS011;31345;51.522;10.702;2023-09-18T06:25:52;9.85;;;8.00;;
45620;SDS011;31345;51.522;10.702;2023-09-18T06:28:34;9.38;;;7.05;;
45620;SDS011;31345;51.522;10.702;2023-09-18T06:31:04;9.13;;;6.68;;
45620;SDS011;31345;51.522;10.702;2023-09-18T06:33:37;8.85;;;7.40;;
45620;SDS011;31345;51.522;10.702;2023-09-18T06:36:09;8.80;;;7.13;;
45620;SDS011;31345;51.522;10.702;2023-09-18T06:38:42;9.85;;;7.00;;
45620;SDS011;31345;51.522;10.702;2023-09-18T06:41:14;9.10;;;7.55;;
45620;SDS011;31345;51.522;10.702;2023-09-18T06:43:47;8.15;;;6.97;;
45620;SDS011;31345;51.522;10.702;2023-09-18T06:46:21;8.05;;;6.45;;
45620;SDS011;31345;51.522;10.702;2023-09-18T06:48:54;9.40;;;7.63;;
45620;SDS011;31345;51.522;10.702;2023-09-18T06:51:27;9.20;;;6.90;;
45620;SDS011;31345;51.522;10.702;2023-09-18T06:53:59;8.90;;;6.65;;
45620;SDS011;31345;51.522;10.702;2023-09-18T06:56:33;8.88;;;7.40;;
45620;SDS011;31345;51.522;10.702;2023-09-18T06:59:06;9.23;;;6.97;;
45620;SDS011;31345;51.522;10.702;2023-09-18T07:01:40;10.05;;;7.45;;
45620;SDS011;31345;51.522;10.702;2023-09-18T07:04:13;9.07;;;6.68;;
45620;SDS011;31345;51.522;10.702;2023-09-18T07:06:46;10.57;;;6.80;;
45620;SDS011;31345;51.522;10.702;2023-09-18T07:09:18;8.82;;;6.28;;
45620;SDS011;31345;51.522;10.702;2023-09-18T07:11:54;6.35;;;5.63;;
45620;SDS011;31345;51.522;10.702;2023-09-18T07:14:26;8.50;;;6.45;;
45620;SDS011;31345;51.522;10.702;2023-09-18T07:17:00;9.43;;;6.78;;
45620;SDS011;31345;51.522;10.702;2023-09-18T07:19:33;9.50;;;6.18;;
45620;SDS011;31345;51.522;10.702;2023-09-18T07:22:05;9.50;;;6.85;;
45620;SDS011;31345;51.522;10.702;2023-09-18T07:24:38;8.63;;;6.25;;
45620;SDS011;31345;51.522;10.702;2023-09-18T07:27:14;9.63;;;6.63;;
45620;SDS011;31345;51.522;10.702;2023-09-18T07:29:47;9.98;;;6.93;;
45620;SDS011;31345;51.522;10.702;2023-09-18T07:32:21;7.15;;;6.18;;
45620;SDS011;31345;51.522;10.702;2023-09-18T07:34:49;7.85;;;6.60;;
45620;SDS011;31345;51.522;10.702;2023-09-18T07:37:23;7.55;;;6.25;;
45620;SDS011;31345;51.522;10.702;2023-09-18T07:39:58;7.60;;;6.80;;
45620;SDS011;31345;51.522;10.702;2023-09-18T07:42:36;8.90;;;7.03;;
45620;SDS011;31345;51.522;10.702;2023-09-18T07:45:06;9.95;;;6.25;;
45620;SDS011;31345;51.522;10.702;2023-09-18T07:47:41;8.98;;;6.93;;
45620;SDS011;31345;51.522;10.702;2023-09-18T07:50:10;8.68;;;6.20;;
45620;SDS011;31345;51.522;10.702;2023-09-18T07:52:44;11.98;;;7.40;;
45620;SDS011;31345;51.522;10.702;2023-09-18T07:55:17;7.07;;;6.25;;
45620;SDS011;31345;51.522;10.702;2023-09-18T07:57:49;8.60;;;6.57;;
45620;SDS011;31345;51.522;10.702;2023-09-18T08:00:22;7.22;;;6.15;;
45620;SDS011;31345;51.522;10.702;2023-09-18T08:02:58;7.65;;;6.00;;
45620;SDS011;31345;51.522;10.702;2023-09-18T08:05:31;9.50;;;6.00;;
45620;SDS011;31345;51.522;10.702;2023-09-18T08:08:04;8.70;;;7.18;;
45620;SDS011;31345;51.522;10.702;2023-09-18T08:10:37;8.95;;;6.78;;
45620;SDS011;31345;51.522;10.702;2023-09-18T08:13:10;8.10;;;6.65;;
45620;SDS011;31345;51.522;10.702;2023-09-18T08:15:37;10.32;;;6.55;;
45620;SDS011;31345;51.522;10.702;2023-09-18T08:18:11;10.38;;;6.18;;
45620;SDS011;31345;51.522;10.702;2023-09-18T08:20:44;8.38;;;6.47;;
45620;SDS011;31345;51.522;10.702;2023-09-18T08:23:17;7.75;;;6.43;;
45620;SDS011;31345;51.522;10.702;2023-09-18T08:25:49;10.45;;;6.68;;
45620;SDS011;31345;51.522;10.702;2023-09-18T08:28:26;12.25;;;6.40;;
45620;SDS011;31345;51.522;10.702;2023-09-18T08:30:59;7.68;;;5.90;;
45620;SDS011;31345;51.522;10.702;2023-09-18T08:33:33;7.35;;;5.60;;
45620;SDS011;31345;51.522;10.702;2023-09-18T08:36:07;8.02;;;6.15;;
45620;SDS011;31345;51.522;10.702;2023-09-18T08:38:39;8.45;;;6.28;;
45620;SDS011;31345;51.522;10.702;2023-09-18T08:41:14;8.25;;;6.40;;
45620;SDS011;31345;51.522;10.702;2023-09-18T08:43:51;7.40;;;5.63;;
45620;SDS011;31345;51.522;10.702;2023-09-18T08:46:25;8.98;;;5.97;;
45620;SDS011;31345;51.522;10.702;2023-09-18T08:48:54;6.95;;;6.10;;
45620;SDS011;31345;51.522;10.702;2023-09-18T08:51:27;7.10;;;5.93;;
45620;SDS011;31345;51.522;10.702;2023-09-18T08:54:01;8.40;;;5.45;;
45620;SDS011;31345;51.522;10.702;2023-09-18T08:56:36;7.82;;;6.10;;
45620;SDS011;31345;51.522;10.702;2023-09-18T08:59:08;9.98;;;6.00;;
45620;SDS011;31345;51.522;10.702;2023-09-18T09:01:42;7.70;;;5.95;;
45620;SDS011;31345;51.522;10.702;2023-09-18T09:04:16;9.27;;;5.93;;
45620;SDS011;31345;51.522;10.702;2023-09-18T09:06:48;9.75;;;5.97;;
45620;SDS011;31345;51.522;10.702;2023-09-18T09:09:16;11.00;;;6.22;;
45620;SDS011;31345;51.522;10.702;2023-09-18T09:11:50;10.13;;;6.15;;
45620;SDS011;31345;51.522;10.702;2023-09-18T09:14:23;8.05;;;5.60;;
45620;SDS011;31345;51.522;10.702;2023-09-18T09:16:59;9.70;;;5.60;;
45620;SDS011;31345;51.522;10.702;2023-09-18T09:19:34;7.90;;;6.10;;
45620;SDS011;31345;51.522;10.702;2023-09-18T09:22:09;8.60;;;6.13;;
45620;SDS011;31345;51.522;10.702;2023-09-18T09:24:52;12.10;;;6.90;;
45620;SDS011;31345;51.522;10.702;2023-09-18T09:27:25;14.02;;;6.82;;
45620;SDS011;31345;51.522;10.702;2023-09-18T09:29:58;9.80;;;7.35;;
45620;SDS011;31345;51.522;10.702;2023-09-18T09:32:31;14.00;;;7.47;;
45620;SDS011;31345;51.522;10.702;2023-09-18T09:35:06;12.45;;;7.85;;
45620;SDS011;31345;51.522;10.702;2023-09-18T09:37:39;9.10;;;7.32;;
45620;SDS011;31345;51.522;10.702;2023-09-18T09:40:12;10.15;;;6.78;;
45620;SDS011;31345;51.522;10.702;2023-09-18T09:42:45;8.90;;;6.97;;
45620;SDS011;31345;51.522;10.702;2023-09-18T09:45:18;8.95;;;6.47;;
45620;SDS011;31345;51.522;10.702;2023-09-18T09:47:52;9.82;;;7.30;;
45620;SDS011;31345;51.522;10.702;2023-09-18T09:50:27;8.88;;;6.70;;
45620;SDS011;31345;51.522;10.702;2023-09-18T09:52:59;9.05;;;5.03;;
45620;SDS011;31345;51.522;10.702;2023-09-18T09:55:33;8.80;;;4.90;;
45620;SDS011;31345;51.522;10.702;2023-09-18T09:58:07;10.07;;;4.13;;
45620;SDS011;31345;51.522;10.702;2023-09-18T10:00:43;8.38;;;3.78;;
45620;SDS011;31345;51.522;10.702;2023-09-18T10:03:20;10.20;;;3.85;;
45620;SDS011;31345;51.522;10.702;2023-09-18T10:05:54;6.88;;;3.67;;
45620;SDS011;31345;51.522;10.702;2023-09-18T10:08:30;8.30;;;3.22;;
45620;SDS011;31345;51.522;10.702;2023-09-18T10:11:05;6.60;;;3.22;;
45620;SDS011;31345;51.522;10.702;2023-09-18T10:13:45;6.75;;;3.35;;
45620;SDS011;31345;51.522;10.702;2023-09-18T10:16:20;10.10;;;3.53;;
45620;SDS011;31345;51.522;10.702;2023-09-18T10:19:00;5.60;;;3.22;;
45620;SDS011;31345;51.522;10.702;2023-09-18T10:21:44;7.53;;;2.85;;
45620;SDS011;31345;51.522;10.702;2023-09-18T10:24:25;5.68;;;2.95;;
45620;SDS011;31345;51.522;10.702;2023-09-18T10:27:01;7.10;;;3.20;;
45620;SDS011;31345;51.522;10.702;2023-09-18T10:29:36;6.15;;;2.92;;
45620;SDS011;31345;51.522;10.702;2023-09-18T10:32:09;6.22;;;2.78;;
45620;SDS011;31345;51.522;10.702;2023-09-18T10:34:44;5.00;;;2.97;;
45620;SDS011;31345;51.522;10.702;2023-09-18T10:37:14;9.57;;;3.08;;
45620;SDS011;31345;51.522;10.702;2023-09-18T10:39:47;8.77;;;2.92;;
45620;SDS011;31345;51.522;10.702;2023-09-18T10:42:16;5.90;;;2.55;;
45620;SDS011;31345;51.522;10.702;2023-09-18T10:44:49;5.95;;;3.08;;
45620;SDS011;31345;51.522;10.702;2023-09-18T10:47:22;8.65;;;2.67;;
45620;SDS011;31345;51.522;10.702;2023-09-18T10:49:55;7.80;;;2.42;;
45620;SDS011;31345;51.522;10.702;2023-09-18T10:52:29;7.88;;;2.40;;
45620;SDS011;31345;51.522;10.702;2023-09-18T10:55:02;6.65;;;2.13;;
45620;SDS011;31345;51.522;10.702;2023-09-18T10:57:35;7.00;;;2.05;;
45620;SDS011;31345;51.522;10.702;2023-09-18T11:00:09;7.95;;;1.90;;
45620;SDS011;31345;51.522;10.702;2023-09-18T11:02:48;5.35;;;1.92;;
45620;SDS011;31345;51.522;10.702;2023-09-18T11:05:28;8.52;;;2.25;;
45620;SDS011;31345;51.522;10.702;2023-09-18T11:10:58;6.15;;;1.65;;
45620;SDS011;31345;51.522;10.702;2023-09-18T11:13:31;8.93;;;1.83;;
45620;SDS011;31345;51.522;10.702;2023-09-18T11:16:02;7.03;;;1.55;;
45620;SDS011;31345;51.522;10.702;2023-09-18T11:18:46;4.38;;;1.60;;
45620;SDS011;31345;51.522;10.702;2023-09-18T11:21:23;5.90;;;1.70;;
45620;SDS011;31345;51.522;10.702;2023-09-18T11:23:59;8.50;;;2.25;;
45620;SDS011;31345;51.522;10.702;2023-09-18T11:26:30;5.15;;;2.00;;
45620;SDS011;31345;51.522;10.702;2023-09-18T11:29:03;5.00;;;1.70;;
45620;SDS011;31345;51.522;10.702;2023-09-18T11:31:44;5.53;;;1.80;;
45620;SDS011;31345;51.522;10.702;2023-09-18T11:34:21;7.20;;;2.20;;
45620;SDS011;31345;51.522;10.702;2023-09-18T11:36:55;8.57;;;2.30;;
45620;SDS011;31345;51.522;10.702;2023-09-18T11:39:36;5.85;;;2.30;;
45620;SDS011;31345;51.522;10.702;2023-09-18T11:42:11;5.70;;;1.73;;
45620;SDS011;31345;51.522;10.702;2023-09-18T11:44:45;9.60;;;2.13;;
45620;SDS011;31345;51.522;10.702;2023-09-18T11:47:19;4.90;;;1.80;;
45620;SDS011;31345;51.522;10.702;2023-09-18T11:49:57;6.18;;;2.00;;
45620;SDS011;31345;51.522;10.702;2023-09-18T11:52:30;8.82;;;2.25;;
45620;SDS011;31345;51.522;10.702;2023-09-18T11:55:04;7.30;;;2.20;;
45620;SDS011;31345;51.522;10.702;2023-09-18T11:57:45;6.82;;;2.42;;
45620;SDS011;31345;51.522;10.702;2023-09-18T12:00:22;10.37;;;2.20;;
45620;SDS011;31345;51.522;10.702;2023-09-18T12:03:12;4.07;;;1.92;;
45620;SDS011;31345;51.522;10.702;2023-09-18T12:05:47;5.20;;;1.98;;
45620;SDS011;31345;51.522;10.702;2023-09-18T12:08:23;5.93;;;1.83;;
45620;SDS011;31345;51.522;10.702;2023-09-18T12:10:59;5.93;;;2.25;;
45620;SDS011;31345;51.522;10.702;2023-09-18T12:13:37;7.63;;;2.85;;
45620;SDS011;31345;51.522;10.702;2023-09-18T12:16:11;6.30;;;2.38;;
45620;SDS011;31345;51.522;10.702;2023-09-18T12:18:45;8.80;;;2.20;;
45620;SDS011;31345;51.522;10.702;2023-09-18T12:21:18;5.97;;;1.85;;
45620;SDS011;31345;51.522;10.702;2023-09-18T12:23:52;8.60;;;2.60;;
45620;SDS011;31345;51.522;10.702;2023-09-18T12:26:26;9.77;;;2.00;;
45620;SDS011;31345;51.522;10.702;2023-09-18T12:29:01;5.88;;;1.73;;
45620;SDS011;31345;51.522;10.702;2023-09-18T12:31:35;8.35;;;2.28;;
45620;SDS011;31345;51.522;10.702;2023-09-18T12:34:13;7.57;;;2.30;;
45620;SDS011;31345;51.522;10.702;2023-09-18T12:36:46;7.13;;;2.15;;
45620;SDS011;31345;51.522;10.702;2023-09-18T12:39:20;9.07;;;2.75;;
45620;SDS011;31345;51.522;10.702;2023-09-18T12:41:54;7.60;;;2.05;;
45620;SDS011;31345;51.522;10.702;2023-09-18T12:44:28;5.25;;;2.22;;
45620;SDS011;31345;51.522;10.702;2023-09-18T12:47:00;7.60;;;2.22;;
45620;SDS011;31345;51.522;10.702;2023-09-18T12:49:34;4.90;;;1.70;;
45620;SDS011;31345;51.522;10.702;2023-09-18T12:52:08;7.40;;;2.03;;
45620;SDS011;31345;51.522;10.702;2023-09-18T12:54:42;5.68;;;2.15;;
45620;SDS011;31345;51.522;10.702;2023-09-18T12:57:18;5.07;;;2.00;;
45620;SDS011;31345;51.522;10.702;2023-09-18T12:59:51;6.32;;;2.25;;
45620;SDS011;31345;51.522;10.702;2023-09-18T13:02:25;6.15;;;1.85;;
45620;SDS011;31345;51.522;10.702;2023-09-18T13:04:58;7.50;;;2.20;;
45620;SDS011;31345;51.522;10.702;2023-09-18T13:07:31;8.05;;;2.33;;
45620;SDS011;31345;51.522;10.702;2023-09-18T13:10:08;5.45;;;1.83;;
45620;SDS011;31345;51.522;10.702;2023-09-18T13:12:42;5.45;;;2.13;;
45620;SDS011;31345;51.522;10.702;2023-09-18T13:15:23;9.23;;;2.42;;
45620;SDS011;31345;51.522;10.702;2023-09-18T13:17:58;7.70;;;2.00;;
45620;SDS011;31345;51.522;10.702;2023-09-18T13:20:32;11.88;;;2.58;;
45620;SDS011;31345;51.522;10.702;2023-09-18T13:23:04;7.75;;;2.60;;
45620;SDS011;31345;51.522;10.702;2023-09-18T13:25:38;10.27;;;2.13;;
45620;SDS011;31345;51.522;10.702;2023-09-18T13:28:16;6.75;;;2.03;;
45620;SDS011;31345;51.522;10.702;2023-09-18T13:30:51;6.00;;;2.63;;
45620;SDS011;31345;51.522;10.702;2023-09-18T13:33:24;9.10;;;2.35;;
45620;SDS011;31345;51.522;10.702;2023-09-18T13:35:52;8.68;;;2.30;;
45620;SDS011;31345;51.522;10.702;2023-09-18T13:38:26;8.23;;;2.47;;
45620;SDS011;31345;51.522;10.702;2023-09-18T13:40:59;6.68;;;2.22;;
45620;SDS011;31345;51.522;10.702;2023-09-18T13:43:33;8.00;;;2.05;;
45620;SDS011;31345;51.522;10.702;2023-09-18T13:46:06;9.57;;;2.33;;
45620;SDS011;31345;51.522;10.702;2023-09-18T13:48:39;4.97;;;2.17;;
45620;SDS011;31345;51.522;10.702;2023-09-18T13:51:11;7.07;;;2.10;;
45620;SDS011;31345;51.522;10.702;2023-09-18T13:53:44;7.93;;;2.17;;
45620;SDS011;31345;51.522;10.702;2023-09-18T13:56:19;8.32;;;1.98;;
45620;SDS011;31345;51.522;10.702;2023-09-18T13:58:48;6.32;;;2.20;;
45620;SDS011;31345;51.522;10.702;2023-09-18T14:01:21;6.82;;;2.03;;
45620;SDS011;31345;51.522;10.702;2023-09-18T14:03:55;7.28;;;1.95;;
45620;SDS011;31345;51.522;10.702;2023-09-18T14:06:28;9.95;;;2.13;;
45620;SDS011;31345;51.522;10.702;2023-09-18T14:09:01;9.75;;;2.47;;
45620;SDS011;31345;51.522;10.702;2023-09-18T14:11:31;5.93;;;2.30;;
45620;SDS011;31345;51.522;10.702;2023-09-18T14:14:05;9.85;;;2.67;;
45620;SDS011;31345;51.522;10.702;2023-09-18T14:16:38;5.72;;;2.00;;
45620;SDS011;31345;51.522;10.702;2023-09-18T14:19:11;10.93;;;2.13;;
45620;SDS011;31345;51.522;10.702;2023-09-18T14:21:43;8.38;;;2.55;;
45620;SDS011;31345;51.522;10.702;2023-09-18T14:24:16;6.13;;;2.10;;
45620;SDS011;31345;51.522;10.702;2023-09-18T14:26:53;5.85;;;2.10;;
45620;SDS011;31345;51.522;10.702;2023-09-18T14:29:27;6.70;;;1.80;;
45620;SDS011;31345;51.522;10.702;2023-09-18T14:32:01;5.30;;;2.30;;
45620;SDS011;31345;51.522;10.702;2023-09-18T14:34:35;7.47;;;2.28;;
45620;SDS011;31345;51.522;10.702;2023-09-18T14:37:07;8.23;;;2.08;;
45620;SDS011;31345;51.522;10.702;2023-09-18T14:39:40;7.10;;;1.83;;
45620;SDS011;31345;51.522;10.702;2023-09-18T14:42:08;7.28;;;2.40;;
45620;SDS011;31345;51.522;10.702;2023-09-18T14:44:42;9.68;;;2.25;;
45620;SDS011;31345;51.522;10.702;2023-09-18T14:47:16;6.25;;;1.90;;
45620;SDS011;31345;51.522;10.702;2023-09-18T14:49:43;8.63;;;2.25;;
45620;SDS011;31345;51.522;10.702;2023-09-18T14:52:17;6.90;;;2.60;;
45620;SDS011;31345;51.522;10.702;2023-09-18T14:54:54;9.93;;;2.45;;
45620;SDS011;31345;51.522;10.702;2023-09-18T14:57:27;5.20;;;1.80;;
45620;SDS011;31345;51.522;10.702;2023-09-18T15:00:01;7.05;;;2.20;;
45620;SDS011;31345;51.522;10.702;2023-09-18T15:02:37;5.03;;;1.85;;
45620;SDS011;31345;51.522;10.702;2023-09-18T15:05:10;6.72;;;1.90;;
45620;SDS011;31345;51.522;10.702;2023-09-18T15:07:46;4.18;;;2.08;;
45620;SDS011;31345;51.522;10.702;2023-09-18T15:10:18;8.20;;;2.10;;
45620;SDS011;31345;51.522;10.702;2023-09-18T15:12:51;5.63;;;1.98;;